sensor_id;sensor_type;location;lat;lon;timestamp;pressure;altitude;pressure_sealevel;temperature;humidity
14295;BME280;7231;59.370;18.016;2023-08-08T00:00:59;98761.16;;;17.89;100.00
14295;BME280;7231;59.370;18.016;2023-08-08T00:03:28;98766.50;;;17.87;100.00
14295;BME280;7231;59.370;18.016;2023-08-08T00:05:57;98755.91;;;17.87;100.00
14295;BME280;7231;59.370;18.016;2023-08-08T00:08:25;98664.25;;;17.29;100.00
14295;BME280;7231;59.370;18.016;2023-08-08T00:10:54;98765.59;;;17.88;100.00
14295;BME280;7231;59.370;18.016;2023-08-08T00:13:24;98674.75;;;17.32;100.00
14295;BME280;7231;59.370;18.016;2023-08-08T00:15:52;98764.66;;;17.89;100.00
14295;BME280;7231;59.370;18.016;2023-08-08T00:18:21;98762.00;;;17.89;100.00
14295;BME280;7231;59.370;18.016;2023-08-08T00:20:49;98758.44;;;17.90;100.00
14295;BME280;7231;59.370;18.016;2023-08-08T00:23:18;98759.31;;;17.91;100.00
14295;BME280;7231;59.370;18.016;2023-08-08T00:25:46;98768.13;;;17.91;100.00
14295;BME280;7231;59.370;18.016;2023-08-08T00:28:17;98762.22;;;17.83;100.00
14295;BME280;7231;59.370;18.016;2023-08-08T00:30:48;98751.53;;;17.86;100.00
14295;BME280;7231;59.370;18.016;2023-08-08T00:33:16;98729.59;;;17.81;100.00
14295;BME280;7231;59.370;18.016;2023-08-08T00:35:44;98732.16;;;17.84;100.00
14295;BME280;7231;59.370;18.016;2023-08-08T00:38:12;98649.78;;;17.39;100.00
14295;BME280;7231;59.370;18.016;2023-08-08T00:40:41;98719.91;;;17.80;100.00
14295;BME280;7231;59.370;18.016;2023-08-08T00:43:09;98727.94;;;17.78;100.00
14295;BME280;7231;59.370;18.016;2023-08-08T00:45:37;98734.16;;;17.77;100.00
14295;BME280;7231;59.370;18.016;2023-08-08T00:48:07;98729.81;;;17.75;100.00
14295;BME280;7231;59.370;18.016;2023-08-08T00:50:37;98714.84;;;17.74;100.00
14295;BME280;7231;59.370;18.016;2023-08-08T00:53:05;98725.50;;;17.72;100.00
14295;BME280;7231;59.370;18.016;2023-08-08T00:55:34;98716.66;;;17.72;100.00
14295;BME280;7231;59.370;18.016;2023-08-08T00:58:04;98701.22;;;17.58;100.00
14295;BME280;7231;59.370;18.016;2023-08-08T01:00:33;98710.66;;;17.67;100.00
14295;BME280;7231;59.370;18.016;2023-08-08T01:03:02;98707.16;;;17.65;100.00
14295;BME280;7231;59.370;18.016;2023-08-08T01:05:37;98700.19;;;17.62;100.00
14295;BME280;7231;59.370;18.016;2023-08-08T01:08:07;98694.03;;;17.62;100.00
14295;BME280;7231;59.370;18.016;2023-08-08T01:10:38;98688.84;;;17.59;100.00
14295;BME280;7231;59.370;18.016;2023-08-08T01:13:11;98662.81;;;17.45;100.00
14295;BME280;7231;59.370;18.016;2023-08-08T01:15:44;98682.88;;;17.52;100.00
14295;BME280;7231;59.370;18.016;2023-08-08T01:18:12;98669.53;;;17.55;100.00
14295;BME280;7231;59.370;18.016;2023-08-08T01:20:44;98667.78;;;17.54;100.00
14295;BME280;7231;59.370;18.016;2023-08-08T01:23:18;98658.97;;;17.53;100.00
14295;BME280;7231;59.370;18.016;2023-08-08T01:25:48;98633.88;;;17.39;100.00
14295;BME280;7231;59.370;18.016;2023-08-08T01:28:20;98660.88;;;17.50;100.00
14295;BME280;7231;59.370;18.016;2023-08-08T01:30:50;98648.53;;;17.49;100.00
14295;BME280;7231;59.370;18.016;2023-08-08T01:33:19;98636.16;;;17.49;100.00
14295;BME280;7231;59.370;18.016;2023-08-08T01:35:52;98631.78;;;17.48;100.00
14295;BME280;7231;59.370;18.016;2023-08-08T01:38:25;98637.13;;;17.47;100.00
14295;BME280;7231;59.370;18.016;2023-08-08T01:40:57;98609.22;;;17.37;100.00
14295;BME280;7231;59.370;18.016;2023-08-08T01:43:27;98625.66;;;17.46;100.00
14295;BME280;7231;59.370;18.016;2023-08-08T01:45:56;98619.44;;;17.47;100.00
14295;BME280;7231;59.370;18.016;2023-08-08T01:48:25;98619.44;;;17.47;100.00
14295;BME280;7231;59.370;18.016;2023-08-08T01:50:53;98617.63;;;17.49;100.00
14295;BME280;7231;59.370;18.016;2023-08-08T01:53:22;98609.63;;;17.51;100.00
14295;BME280;7231;59.370;18.016;2023-08-08T01:55:51;98601.66;;;17.51;100.00
14295;BME280;7231;59.370;18.016;2023-08-08T01:58:22;98514.31;;;17.00;100.00
14295;BME280;7231;59.370;18.016;2023-08-08T02:00:53;98601.72;;;17.49;100.00
14295;BME280;7231;59.370;18.016;2023-08-08T02:03:21;98579.28;;;17.35;100.00
14295;BME280;7231;59.370;18.016;2023-08-08T02:05:51;98546.00;;;17.28;100.00
14295;BME280;7231;59.370;18.016;2023-08-08T02:08:25;98583.94;;;17.53;100.00
14295;BME280;7231;59.370;18.016;2023-08-08T02:10:53;98549.94;;;17.41;100.00
14295;BME280;7231;59.370;18.016;2023-08-08T02:13:23;98561.81;;;17.54;100.00
14295;BME280;7231;59.370;18.016;2023-08-08T02:15:52;98548.72;;;17.49;100.00
14295;BME280;7231;59.370;18.016;2023-08-08T02:18:21;98559.16;;;17.54;100.00
14295;BME280;7231;59.370;18.016;2023-08-08T02:20:49;98543.25;;;17.54;100.00
14295;BME280;7231;59.370;18.016;2023-08-08T02:23:17;98542.34;;;17.55;100.00
14295;BME280;7231;59.370;18.016;2023-08-08T02:25:46;98521.19;;;17.53;100.00
14295;BME280;7231;59.370;18.016;2023-08-08T02:28:14;98525.63;;;17.53;100.00
14295;BME280;7231;59.370;18.016;2023-08-08T02:30:44;98493.50;;;17.39;100.00
14295;BME280;7231;59.370;18.016;2023-08-08T02:33:12;98509.00;;;17.49;100.00
14295;BME280;7231;59.370;18.016;2023-08-08T02:35:41;98502.94;;;17.46;100.00
14295;BME280;7231;59.370;18.016;2023-08-08T02:38:11;98501.31;;;17.42;100.00
14295;BME280;7231;59.370;18.016;2023-08-08T02:40:41;98458.28;;;17.12;100.00
14295;BME280;7231;59.370;18.016;2023-08-08T02:43:10;98498.03;;;17.35;100.00
14295;BME280;7231;59.370;18.016;2023-08-08T02:45:38;98500.75;;;17.34;100.00
14295;BME280;7231;59.370;18.016;2023-08-08T02:48:09;98494.63;;;17.32;100.00
14295;BME280;7231;59.370;18.016;2023-08-08T02:50:37;98487.63;;;17.31;100.00
14295;BME280;7231;59.370;18.016;2023-08-08T02:53:05;98484.16;;;17.29;100.00
14295;BME280;7231;59.370;18.016;2023-08-08T02:55:36;98462.44;;;17.19;100.00
14295;BME280;7231;59.370;18.016;2023-08-08T02:58:10;98466.66;;;17.25;100.00
14295;BME280;7231;59.370;18.016;2023-08-08T03:00:39;98451.16;;;17.14;100.00
14295;BME280;7231;59.370;18.016;2023-08-08T03:03:09;98460.53;;;17.23;100.00
14295;BME280;7231;59.370;18.016;2023-08-08T03:05:37;98461.47;;;17.22;100.00
14295;BME280;7231;59.370;18.016;2023-08-08T03:08:05;98405.03;;;16.96;100.00
14295;BME280;7231;59.370;18.016;2023-08-08T03:10:33;98436.84;;;17.19;100.00
14295;BME280;7231;59.370;18.016;2023-08-08T03:13:02;98430.72;;;17.17;100.00
14295;BME280;7231;59.370;18.016;2023-08-08T03:15:30;98429.00;;;17.16;100.00
14295;BME280;7231;59.370;18.016;2023-08-08T03:17:59;98430.78;;;17.16;100.00
14295;BME280;7231;59.370;18.016;2023-08-08T03:20:29;98432.63;;;17.14;100.00
14295;BME280;7231;59.370;18.016;2023-08-08T03:22:58;98429.97;;;17.14;100.00
14295;BME280;7231;59.370;18.016;2023-08-08T03:25:27;98428.31;;;17.11;100.00
14295;BME280;7231;59.370;18.016;2023-08-08T03:27:55;98421.28;;;17.10;100.00
14295;BME280;7231;59.370;18.016;2023-08-08T03:30:25;98417.84;;;17.08;100.00
14295;BME280;7231;59.370;18.016;2023-08-08T03:32:53;98404.81;;;17.02;100.00
14295;BME280;7231;59.370;18.016;2023-08-08T03:35:21;98403.78;;;17.06;100.00
14295;BME280;7231;59.370;18.016;2023-08-08T03:37:51;98402.16;;;17.02;100.00
14295;BME280;7231;59.370;18.016;2023-08-08T03:40:19;98393.47;;;16.99;100.00
14295;BME280;7231;59.370;18.016;2023-08-08T03:42:47;98399.56;;;17.01;100.00
14295;BME280;7231;59.370;18.016;2023-08-08T03:45:15;98403.16;;;17.00;100.00
14295;BME280;7231;59.370;18.016;2023-08-08T03:47:45;98403.09;;;17.01;100.00
14295;BME280;7231;59.370;18.016;2023-08-08T03:50:13;98393.41;;;17.00;100.00
14295;BME280;7231;59.370;18.016;2023-08-08T03:52:41;98381.09;;;16.99;100.00
14295;BME280;7231;59.370;18.016;2023-08-08T03:55:13;98371.50;;;16.97;100.00
14295;BME280;7231;59.370;18.016;2023-08-08T03:57:41;98377.75;;;16.94;100.00
14295;BME280;7231;59.370;18.016;2023-08-08T04:00:10;98374.31;;;16.92;100.00
14295;BME280;7231;59.370;18.016;2023-08-08T04:02:39;98367.34;;;16.90;100.00
14295;BME280;7231;59.370;18.016;2023-08-08T04:05:07;98333.00;;;16.65;100.00
14295;BME280;7231;59.370;18.016;2023-08-08T04:07:36;98356.13;;;16.83;100.00
14295;BME280;7231;59.370;18.016;2023-08-08T04:10:05;98351.81;;;16.80;100.00
14295;BME280;7231;59.370;18.016;2023-08-08T04:12:37;98365.97;;;16.79;100.00
14295;BME280;7231;59.370;18.016;2023-08-08T04:15:06;98348.53;;;16.74;100.00
14295;BME280;7231;59.370;18.016;2023-08-08T04:17:35;98362.44;;;16.79;100.00
14295;BME280;7231;59.370;18.016;2023-08-08T04:20:05;98357.28;;;16.76;100.00
14295;BME280;7231;59.370;18.016;2023-08-08T04:22:33;98347.72;;;16.72;100.00
14295;BME280;7231;59.370;18.016;2023-08-08T04:25:04;98345.28;;;16.66;100.00
14295;BME280;7231;59.370;18.016;2023-08-08T04:27:33;98339.28;;;16.61;100.00
14295;BME280;7231;59.370;18.016;2023-08-08T04:30:03;98338.56;;;16.55;100.00
14295;BME280;7231;59.370;18.016;2023-08-08T04:32:31;98347.53;;;16.51;100.00
14295;BME280;7231;59.370;18.016;2023-08-08T04:35:00;98341.44;;;16.49;100.00
14295;BME280;7231;59.370;18.016;2023-08-08T04:37:29;98338.16;;;16.43;100.00
14295;BME280;7231;59.370;18.016;2023-08-08T04:39:58;98343.28;;;16.47;100.00
14295;BME280;7231;59.370;18.016;2023-08-08T04:42:26;98336.31;;;16.45;100.00
14295;BME280;7231;59.370;18.016;2023-08-08T04:44:55;98335.44;;;16.44;100.00
14295;BME280;7231;59.370;18.016;2023-08-08T04:47:24;98328.53;;;16.40;100.00
14295;BME280;7231;59.370;18.016;2023-08-08T04:49:53;98321.63;;;16.36;100.00
14295;BME280;7231;59.370;18.016;2023-08-08T04:52:21;98325.38;;;16.31;100.00
14295;BME280;7231;59.370;18.016;2023-08-08T04:54:50;98333.25;;;16.32;100.00
14295;BME280;7231;59.370;18.016;2023-08-08T04:57:18;98323.59;;;16.31;100.00
14295;BME280;7231;59.370;18.016;2023-08-08T04:59:47;98324.56;;;16.29;100.00
14295;BME280;7231;59.370;18.016;2023-08-08T05:02:16;98316.69;;;16.27;100.00
14295;BME280;7231;59.370;18.016;2023-08-08T05:04:47;98315.88;;;16.25;100.00
14295;BME280;7231;59.370;18.016;2023-08-08T05:07:16;98313.38;;;16.20;100.00
14295;BME280;7231;59.370;18.016;2023-08-08T05:09:44;98302.84;;;16.19;100.00
14295;BME280;7231;59.370;18.016;2023-08-08T05:12:13;98302.06;;;16.17;100.00
14295;BME280;7231;59.370;18.016;2023-08-08T05:14:42;98296.72;;;16.18;100.00
14295;BME280;7231;59.370;18.016;2023-08-08T05:17:11;98298.50;;;16.18;100.00
14295;BME280;7231;59.370;18.016;2023-08-08T05:19:39;98289.66;;;16.19;100.00
14295;BME280;7231;59.370;18.016;2023-08-08T05:22:09;98286.19;;;16.17;100.00
14295;BME280;7231;59.370;18.016;2023-08-08T05:24:37;98280.97;;;16.15;100.00
14295;BME280;7231;59.370;18.016;2023-08-08T05:27:05;98283.50;;;16.18;100.00
14295;BME280;7231;59.370;18.016;2023-08-08T05:29:33;98277.19;;;16.22;100.00
14295;BME280;7231;59.370;18.016;2023-08-08T05:32:05;98270.91;;;16.25;100.00
14295;BME280;7231;59.370;18.016;2023-08-08T05:34:35;98279.44;;;16.33;100.00
14295;BME280;7231;59.370;18.016;2023-08-08T05:37:04;98253.31;;;16.24;100.00
14295;BME280;7231;59.370;18.016;2023-08-08T05:39:47;98256.50;;;16.34;100.00
14295;BME280;7231;59.370;18.016;2023-08-08T05:42:15;98260.94;;;16.33;100.00
14295;BME280;7231;59.370;18.016;2023-08-08T05:44:45;98251.28;;;16.32;100.00
14295;BME280;7231;59.370;18.016;2023-08-08T05:47:13;98237.19;;;16.32;100.00
14295;BME280;7231;59.370;18.016;2023-08-08T05:49:41;98235.34;;;16.34;100.00
14295;BME280;7231;59.370;18.016;2023-08-08T05:52:11;98229.16;;;16.35;100.00
14295;BME280;7231;59.370;18.016;2023-08-08T05:54:42;98230.00;;;16.35;100.00
14295;BME280;7231;59.370;18.016;2023-08-08T05:57:11;98214.84;;;16.40;100.00
14295;BME280;7231;59.370;18.016;2023-08-08T05:59:40;98200.00;;;16.36;100.00
14295;BME280;7231;59.370;18.016;2023-08-08T06:02:12;98205.88;;;16.44;100.00
14295;BME280;7231;59.370;18.016;2023-08-08T06:04:41;98188.31;;;16.42;100.00
14295;BME280;7231;59.370;18.016;2023-08-08T06:07:09;98190.75;;;16.48;100.00
14295;BME280;7231;59.370;18.016;2023-08-08T06:09:39;98188.84;;;16.51;100.00
14295;BME280;7231;59.370;18.016;2023-08-08T06:12:08;98187.22;;;16.47;100.00
14295;BME280;7231;59.370;18.016;2023-08-08T06:14:39;98183.66;;;16.48;100.00
14295;BME280;7231;59.370;18.016;2023-08-08T06:17:08;98172.97;;;16.51;100.00
14295;BME280;7231;59.370;18.016;2023-08-08T06:19:36;98183.56;;;16.51;100.00
14295;BME280;7231;59.370;18.016;2023-08-08T06:22:05;98169.41;;;16.52;100.00
14295;BME280;7231;59.370;18.016;2023-08-08T06:24:33;98162.28;;;16.54;100.00
14295;BME280;7231;59.370;18.016;2023-08-08T06:27:01;98169.84;;;16.64;100.00
14295;BME280;7231;59.370;18.016;2023-08-08T06:29:30;98171.38;;;16.71;100.00
14295;BME280;7231;59.370;18.016;2023-08-08T06:32:00;98162.31;;;16.76;100.00
14295;BME280;7231;59.370;18.016;2023-08-08T06:34:30;98153.34;;;16.80;100.00
14295;BME280;7231;59.370;18.016;2023-08-08T06:37:00;98148.78;;;16.84;100.00
14295;BME280;7231;59.370;18.016;2023-08-08T06:39:28;98153.97;;;16.87;100.00
14295;BME280;7231;59.370;18.016;2023-08-08T06:41:56;98138.03;;;16.88;100.00
14295;BME280;7231;59.370;18.016;2023-08-08T06:44:26;98134.50;;;16.88;100.00
14295;BME280;7231;59.370;18.016;2023-08-08T06:46:55;98109.47;;;16.75;100.00
14295;BME280;7231;59.370;18.016;2023-08-08T06:49:24;98136.97;;;16.93;100.00
14295;BME280;7231;59.370;18.016;2023-08-08T06:51:52;98133.59;;;16.89;100.00
14295;BME280;7231;59.370;18.016;2023-08-08T06:54:21;98130.09;;;16.88;100.00
14295;BME280;7231;59.370;18.016;2023-08-08T06:56:49;98132.78;;;16.87;100.00
14295;BME280;7231;59.370;18.016;2023-08-08T06:59:17;98137.22;;;16.86;100.00
14295;BME280;7231;59.370;18.016;2023-08-08T07:01:45;98130.41;;;16.81;100.00
14295;BME280;7231;59.370;18.016;2023-08-08T07:04:13;98134.88;;;16.79;100.00
14295;BME280;7231;59.370;18.016;2023-08-08T07:06:43;98137.41;;;16.82;100.00
14295;BME280;7231;59.370;18.016;2023-08-08T07:09:12;98101.84;;;16.67;100.00
14295;BME280;7231;59.370;18.016;2023-08-08T07:11:41;98132.78;;;16.87;100.00
14295;BME280;7231;59.370;18.016;2023-08-08T07:14:11;98132.41;;;16.96;100.00
14295;BME280;7231;59.370;18.016;2023-08-08T07:16:39;98126.88;;;17.02;100.00
14295;BME280;7231;59.370;18.016;2023-08-08T07:19:07;98125.44;;;17.15;100.00
14295;BME280;7231;59.370;18.016;2023-08-08T07:21:37;98124.94;;;17.28;100.00
14295;BME280;7231;59.370;18.016;2023-08-08T07:24:07;98129.22;;;17.30;100.00
14295;BME280;7231;59.370;18.016;2023-08-08T07:26:36;98131.00;;;17.30;100.00
14295;BME280;7231;59.370;18.016;2023-08-08T07:29:05;98132.75;;;17.31;100.00
14295;BME280;7231;59.370;18.016;2023-08-08T07:31:33;98131.94;;;17.29;100.00
14295;BME280;7231;59.370;18.016;2023-08-08T07:34:01;98130.41;;;17.23;100.00
14295;BME280;7231;59.370;18.016;2023-08-08T07:36:30;98132.25;;;17.21;100.00
14295;BME280;7231;59.370;18.016;2023-08-08T07:39:01;98128.81;;;17.19;100.00
14295;BME280;7231;59.370;18.016;2023-08-08T07:41:31;98128.81;;;17.19;100.00
14295;BME280;7231;59.370;18.016;2023-08-08T07:43:59;98124.78;;;17.10;100.00
14295;BME280;7231;59.370;18.016;2023-08-08T07:46:27;98126.44;;;17.13;100.00
14295;BME280;7231;59.370;18.016;2023-08-08T07:48:55;98129.13;;;17.11;100.00
14295;BME280;7231;59.370;18.016;2023-08-08T07:51:27;98126.38;;;17.14;100.00
14295;BME280;7231;59.370;18.016;2023-08-08T07:53:56;98111.41;;;17.13;100.00
14295;BME280;7231;59.370;18.016;2023-08-08T07:56:25;98092.34;;;17.05;100.00
14295;BME280;7231;59.370;18.016;2023-08-08T07:58:55;98129.34;;;17.27;100.00
14295;BME280;7231;59.370;18.016;2023-08-08T08:01:24;98119.56;;;17.29;100.00
14295;BME280;7231;59.370;18.016;2023-08-08T08:03:54;98120.03;;;17.39;100.00
14295;BME280;7231;59.370;18.016;2023-08-08T08:06:22;98118.72;;;17.49;100.00
14295;BME280;7231;59.370;18.016;2023-08-08T08:08:57;98126.91;;;17.63;100.00
14295;BME280;7231;59.370;18.016;2023-08-08T08:11:28;98107.66;;;17.80;100.00
14295;BME280;7231;59.370;18.016;2023-08-08T08:13:58;98098.25;;;18.12;100.00
14295;BME280;7231;59.370;18.016;2023-08-08T08:16:28;98130.47;;;18.40;100.00
14295;BME280;7231;59.370;18.016;2023-08-08T08:18:56;98119.44;;;18.49;100.00
14295;BME280;7231;59.370;18.016;2023-08-08T08:21:24;98125.81;;;18.45;100.00
14295;BME280;7231;59.370;18.016;2023-08-08T08:23:53;98115.13;;;18.28;100.00
14295;BME280;7231;59.370;18.016;2023-08-08T08:26:21;98108.81;;;18.31;100.00
14295;BME280;7231;59.370;18.016;2023-08-08T08:28:50;98114.91;;;18.33;100.00
14295;BME280;7231;59.370;18.016;2023-08-08T08:31:19;98126.38;;;18.33;100.00
14295;BME280;7231;59.370;18.016;2023-08-08T08:33:47;98122.09;;;18.31;100.00
14295;BME280;7231;59.370;18.016;2023-08-08T08:36:16;98123.09;;;18.28;100.00
14295;BME280;7231;59.370;18.016;2023-08-08T08:38:45;98132.63;;;18.32;100.00
14295;BME280;7231;59.370;18.016;2023-08-08T08:41:17;98129.31;;;18.27;100.00
14295;BME280;7231;59.370;18.016;2023-08-08T08:43:46;98132.50;;;18.16;100.00
14295;BME280;7231;59.370;18.016;2023-08-08T08:46:21;98138.03;;;18.12;100.00
14295;BME280;7231;59.370;18.016;2023-08-08T08:48:51;98131.28;;;18.05;100.00
14295;BME280;7231;59.370;18.016;2023-08-08T08:51:20;98141.28;;;17.98;100.00
14295;BME280;7231;59.370;18.016;2023-08-08T08:53:48;98141.78;;;17.88;100.00
14295;BME280;7231;59.370;18.016;2023-08-08T08:56:17;98127.31;;;17.54;100.00
14295;BME280;7231;59.370;18.016;2023-08-08T08:58:47;98150.38;;;17.52;100.00
14295;BME280;7231;59.370;18.016;2023-08-08T09:01:17;98159.50;;;17.45;100.00
14295;BME280;7231;59.370;18.016;2023-08-08T09:03:48;98157.31;;;17.34;100.00
14295;BME280;7231;59.370;18.016;2023-08-08T09:06:16;98156.44;;;17.34;100.00
14295;BME280;7231;59.370;18.016;2023-08-08T09:08:47;98163.66;;;17.30;100.00
14295;BME280;7231;59.370;18.016;2023-08-08T09:11:19;98167.22;;;17.29;100.00
14295;BME280;7231;59.370;18.016;2023-08-08T09:13:47;98159.34;;;17.28;100.00
14295;BME280;7231;59.370;18.016;2023-08-08T09:16:15;98161.06;;;17.29;100.00
14295;BME280;7231;59.370;18.016;2023-08-08T09:18:44;98167.34;;;17.26;100.00
14295;BME280;7231;59.370;18.016;2023-08-08T09:21:13;98172.78;;;17.23;100.00
14295;BME280;7231;59.370;18.016;2023-08-08T09:23:43;98179.06;;;17.20;100.00
14295;BME280;7231;59.370;18.016;2023-08-08T09:26:13;98181.59;;;17.24;100.00
14295;BME280;7231;59.370;18.016;2023-08-08T09:28:43;98179.00;;;17.22;100.00
14295;BME280;7231;59.370;18.016;2023-08-08T09:31:11;98187.81;;;17.23;100.00
14295;BME280;7231;59.370;18.016;2023-08-08T09:33:40;98200.97;;;17.24;100.00
14295;BME280;7231;59.370;18.016;2023-08-08T09:36:15;98195.38;;;17.32;100.00
14295;BME280;7231;59.370;18.016;2023-08-08T09:38:43;98190.44;;;17.44;100.00
14295;BME280;7231;59.370;18.016;2023-08-08T09:41:13;98199.38;;;17.62;100.00
14295;BME280;7231;59.370;18.016;2023-08-08T09:43:43;98202.28;;;17.78;100.00
14295;BME280;7231;59.370;18.016;2023-08-08T09:46:11;98206.97;;;17.92;100.00
14295;BME280;7231;59.370;18.016;2023-08-08T09:48:41;98214.84;;;18.13;100.00
14295;BME280;7231;59.370;18.016;2023-08-08T09:51:09;98213.19;;;18.30;100.00
14295;BME280;7231;59.370;18.016;2023-08-08T09:53:41;98220.03;;;18.35;100.00
14295;BME280;7231;59.370;18.016;2023-08-08T09:56:12;98223.81;;;18.30;100.00
14295;BME280;7231;59.370;18.016;2023-08-08T09:58:42;98232.41;;;18.16;100.00
14295;BME280;7231;59.370;18.016;2023-08-08T10:01:11;98214.53;;;18.01;100.00
14295;BME280;7231;59.370;18.016;2023-08-08T10:03:41;98233.47;;;18.12;100.00
14295;BME280;7231;59.370;18.016;2023-08-08T10:06:10;98142.81;;;17.63;100.00
14295;BME280;7231;59.370;18.016;2023-08-08T10:08:41;98255.97;;;18.22;100.00
14295;BME280;7231;59.370;18.016;2023-08-08T10:11:10;98241.97;;;18.00;100.00
14295;BME280;7231;59.370;18.016;2023-08-08T10:13:47;98252.50;;;18.01;100.00
14295;BME280;7231;59.370;18.016;2023-08-08T10:16:17;98257.88;;;18.00;100.00
14295;BME280;7231;59.370;18.016;2023-08-08T10:18:55;98252.97;;;17.91;100.00
14295;BME280;7231;59.370;18.016;2023-08-08T10:21:24;98273.00;;;17.98;100.00
14295;BME280;7231;59.370;18.016;2023-08-08T10:24:03;98247.78;;;17.67;100.00
14295;BME280;7231;59.370;18.016;2023-08-08T10:26:32;98284.50;;;17.76;100.00
14295;BME280;7231;59.370;18.016;2023-08-08T10:29:01;98289.19;;;17.70;100.00
14295;BME280;7231;59.370;18.016;2023-08-08T10:31:33;98296.41;;;17.66;100.00
14295;BME280;7231;59.370;18.016;2023-08-08T10:34:04;98272.00;;;17.36;100.00
14295;BME280;7231;59.370;18.016;2023-08-08T10:36:44;98310.78;;;17.37;100.00
14295;BME280;7231;59.370;18.016;2023-08-08T10:39:16;98326.41;;;17.22;100.00
14295;BME280;7231;59.370;18.016;2023-08-08T10:41:46;98341.28;;;17.02;100.00
14295;BME280;7231;59.370;18.016;2023-08-08T10:44:24;98330.25;;;16.91;100.00
14295;BME280;7231;59.370;18.016;2023-08-08T10:46:53;98336.78;;;16.81;100.00
14295;BME280;7231;59.370;18.016;2023-08-08T10:49:24;98346.75;;;16.74;100.00
14295;BME280;7231;59.370;18.016;2023-08-08T10:51:53;98349.22;;;16.79;100.00
14295;BME280;7231;59.370;18.016;2023-08-08T10:54:24;98360.03;;;16.73;100.00
14295;BME280;7231;59.370;18.016;2023-08-08T10:57:03;98368.31;;;16.62;100.00
14295;BME280;7231;59.370;18.016;2023-08-08T10:59:36;98368.81;;;16.48;100.00
14295;BME280;7231;59.370;18.016;2023-08-08T11:02:09;98377.34;;;16.56;100.00
14295;BME280;7231;59.370;18.016;2023-08-08T11:04:39;98380.03;;;16.55;100.00
14295;BME280;7231;59.370;18.016;2023-08-08T11:07:09;98394.88;;;16.59;100.00
14295;BME280;7231;59.370;18.016;2023-08-08T11:09:39;98394.72;;;16.64;100.00
14295;BME280;7231;59.370;18.016;2023-08-08T11:12:13;98415.69;;;16.70;100.00
14295;BME280;7231;59.370;18.016;2023-08-08T11:14:43;98420.19;;;16.68;100.00
14295;BME280;7231;59.370;18.016;2023-08-08T11:17:11;98424.84;;;16.60;100.00
14295;BME280;7231;59.370;18.016;2023-08-08T11:19:40;98445.34;;;16.53;100.00
14295;BME280;7231;59.370;18.016;2023-08-08T11:22:11;98446.44;;;16.47;100.00
14295;BME280;7231;59.370;18.016;2023-08-08T11:24:42;98443.28;;;16.36;100.00
14295;BME280;7231;59.370;18.016;2023-08-08T11:27:10;98457.47;;;16.34;100.00
14295;BME280;7231;59.370;18.016;2023-08-08T11:29:39;98462.81;;;16.32;100.00
14295;BME280;7231;59.370;18.016;2023-08-08T11:32:08;98466.56;;;16.25;100.00
14295;BME280;7231;59.370;18.016;2023-08-08T11:34:39;98472.97;;;16.18;100.00
14295;BME280;7231;59.370;18.016;2023-08-08T11:37:07;98488.06;;;16.14;100.00
14295;BME280;7231;59.370;18.016;2023-08-08T11:39:36;98484.91;;;16.03;100.00
14295;BME280;7231;59.370;18.016;2023-08-08T11:42:06;98491.97;;;16.03;100.00
14295;BME280;7231;59.370;18.016;2023-08-08T11:44:37;98490.03;;;16.08;100.00
14295;BME280;7231;59.370;18.016;2023-08-08T11:47:05;98389.94;;;15.71;100.00
14295;BME280;7231;59.370;18.016;2023-08-08T11:49:40;98496.53;;;16.52;100.00
14295;BME280;7231;59.370;18.016;2023-08-08T11:52:08;98496.53;;;16.52;100.00
14295;BME280;7231;59.370;18.016;2023-08-08T11:54:38;98500.94;;;16.51;100.00
14295;BME280;7231;59.370;18.016;2023-08-08T11:57:08;98469.97;;;16.29;100.00
14295;BME280;7231;59.370;18.016;2023-08-08T11:59:37;98505.47;;;16.48;100.00
14295;BME280;7231;59.370;18.016;2023-08-08T12:02:07;98492.09;;;16.52;100.00
14295;BME280;7231;59.370;18.016;2023-08-08T12:04:37;98519.13;;;16.62;100.00
14295;BME280;7231;59.370;18.016;2023-08-08T12:07:06;98526.72;;;16.73;100.00
14295;BME280;7231;59.370;18.016;2023-08-08T12:09:36;98540.56;;;16.81;100.00
14295;BME280;7231;59.370;18.016;2023-08-08T12:12:05;98535.16;;;16.84;100.00
14295;BME280;7231;59.370;18.016;2023-08-08T12:14:39;98541.22;;;16.87;99.96
14295;BME280;7231;59.370;18.016;2023-08-08T12:17:20;98547.16;;;16.94;99.44
14295;BME280;7231;59.370;18.016;2023-08-08T12:19:48;98548.78;;;16.98;98.80
14295;BME280;7231;59.370;18.016;2023-08-08T12:22:16;98553.44;;;16.92;97.73
14295;BME280;7231;59.370;18.016;2023-08-08T12:24:45;98544.94;;;16.82;97.06
14295;BME280;7231;59.370;18.016;2023-08-08T12:27:14;98552.00;;;16.81;96.53
14295;BME280;7231;59.370;18.016;2023-08-08T12:29:44;98570.59;;;16.80;96.29
14295;BME280;7231;59.370;18.016;2023-08-08T12:32:13;98565.50;;;16.74;95.26
14295;BME280;7231;59.370;18.016;2023-08-08T12:34:41;98581.69;;;16.65;95.27
14295;BME280;7231;59.370;18.016;2023-08-08T12:37:10;98569.34;;;16.64;95.08
14295;BME280;7231;59.370;18.016;2023-08-08T12:39:44;98571.00;;;16.68;94.52
14295;BME280;7231;59.370;18.016;2023-08-08T12:42:13;98600.97;;;16.68;94.16
14295;BME280;7231;59.370;18.016;2023-08-08T12:44:42;98609.25;;;16.56;93.50
14295;BME280;7231;59.370;18.016;2023-08-08T12:47:12;98598.16;;;16.45;93.38
14295;BME280;7231;59.370;18.016;2023-08-08T12:49:41;98603.44;;;16.45;93.84
14295;BME280;7231;59.370;18.016;2023-08-08T12:52:09;98604.13;;;16.51;93.98
14295;BME280;7231;59.370;18.016;2023-08-08T12:54:38;98606.66;;;16.54;93.69
14295;BME280;7231;59.370;18.016;2023-08-08T12:57:06;98598.47;;;16.62;93.74
14295;BME280;7231;59.370;18.016;2023-08-08T12:59:34;98573.34;;;16.49;93.31
14295;BME280;7231;59.370;18.016;2023-08-08T13:02:02;98624.94;;;16.90;92.43